Time;durP1;ratioP1;P1;durP2;ratioP2;P2;SDS_P1;SDS_P2;PMS_P1;PMS_P2;Temp;Humidity;BMP_temperature;BMP_pressure;BME280_temperature;BME280_humidity;BME280_pressure;Samples;Min_cycle;Max_cycle;Signal;HPM_P1;HPM_P2
2024/01/22 00:03:24;;;;;;;;;;;8.50;99.90;;;;;;8462529;28;19931;-75
2024/01/22 00:07:26;;;;;;;;;;;8.60;99.90;;;;;;8437781;28;20278;-75
2024/01/22 00:11:28;;;;;;;;;;;8.60;99.90;;;;;;8443556;28;19931;-75
2024/01/22 00:15:30;;;;;;;;;;;8.60;99.90;;;;;;8462320;28;19923;-75
2024/01/22 00:19:32;;;;;;;;;;;8.70;99.90;;;;;;8444606;28;19932;-76
2024/01/22 00:23:33;;;;;;;;;;;8.70;99.90;;;;;;8459925;27;19934;-75
2024/01/22 00:27:35;;;;;;;;;;;8.80;99.90;;;;;;8436091;28;20412;-75
2024/01/22 00:36:56;;;;;;;;;;;8.90;99.90;;;;;;8455659;28;20007;-75
2024/01/22 00:40:58;;;;;;;;;;;8.90;99.90;;;;;;8444433;28;19931;-75
2024/01/22 00:44:59;;;;;;;;;;;9.00;99.90;;;;;;8457205;28;20321;-75
2024/01/22 00:49:01;;;;;;;;;;;9.10;99.90;;;;;;8460889;28;20340;-75
2024/01/22 00:53:03;;;;;;;;;;;9.20;99.90;;;;;;8459247;27;20000;-75
2024/01/22 00:57:05;;;;;;;;;;;9.20;99.90;;;;;;8461786;28;20275;-75
2024/01/22 01:01:08;;;;;;;;;;;9.30;99.90;;;;;;8458802;27;20332;-75
2024/01/22 01:05:10;;;;;;;;;;;9.40;99.90;;;;;;8460975;28;19963;-74
2024/01/22 01:09:11;;;;;;;;;;;9.40;99.90;;;;;;8441092;28;19938;-75
2024/01/22 01:13:13;;;;;;;;;;;9.50;99.90;;;;;;8437793;28;19924;-75
2024/01/22 01:17:21;;;;;;;;;;;9.60;99.90;;;;;;8460759;28;19935;-76
2024/01/22 01:21:23;;;;;;;;;;;9.60;99.90;;;;;;8457144;28;19924;-75
2024/01/22 01:25:24;;;;;;;;;;;9.60;99.90;;;;;;8454935;28;19931;-75
2024/01/22 01:29:26;;;;;;;;;;;9.40;99.90;;;;;;8458986;28;20418;-75
2024/01/22 01:33:28;;;;;;;;;;;9.30;99.90;;;;;;8440981;28;19928;-75
2024/01/22 01:42:10;;;;;;;;;;;9.20;99.90;;;;;;8455025;28;19931;-75
2024/01/22 01:46:12;;;;;;;;;;;9.20;99.90;;;;;;8460632;28;20284;-76
2024/01/22 01:50:15;;;;;;;;;;;9.20;99.90;;;;;;8439895;28;19975;-75
2024/01/22 01:54:16;;;;;;;;;;;9.20;99.90;;;;;;8458819;28;19931;-75
2024/01/22 01:58:18;;;;;;;;;;;9.30;99.90;;;;;;8442047;28;20036;-76
2024/01/22 02:02:20;;;;;;;;;;;9.40;99.90;;;;;;8451998;28;20305;-75
2024/01/22 02:11:25;;;;;;;;;;;9.50;99.90;;;;;;8458250;28;20417;-76
2024/01/22 02:15:27;;;;;;;;;;;9.70;99.90;;;;;;8457998;28;19924;-75
2024/01/22 02:19:30;;;;;;;;;;;9.80;99.90;;;;;;8457331;28;19928;-75
2024/01/22 02:23:31;;;;;;;;;;;9.90;99.90;;;;;;8448415;28;19939;-75
2024/01/22 02:27:33;;;;;;;;;;;10.00;99.90;;;;;;8444521;28;20362;-76
2024/01/22 02:31:35;;;;;;;;;;;10.00;99.90;;;;;;8441728;28;19931;-75
2024/01/22 02:35:36;;;;;;;;;;;9.90;99.90;;;;;;8452198;28;20340;-76
2024/01/22 02:39:38;;;;;;;;;;;9.80;99.90;;;;;;8465619;28;19924;-76
2024/01/22 02:43:40;;;;;;;;;;;9.70;99.90;;;;;;8445596;28;19924;-76
2024/01/22 02:47:41;;;;;;;;;;;9.60;99.90;;;;;;8466743;28;20367;-76
2024/01/22 02:51:44;;;;;;;;;;;9.50;99.90;;;;;;8445043;28;19924;-75
2024/01/22 02:55:45;;;;;;;;;;;9.50;99.90;;;;;;8443401;28;19934;-75
2024/01/22 02:59:47;;;;;;;;;;;9.50;99.90;;;;;;8463030;28;19931;-76
2024/01/22 03:03:49;;;;;;;;;;;9.60;99.90;;;;;;8460651;28;19969;-75
2024/01/22 03:07:50;;;;;;;;;;;9.70;99.90;;;;;;8464242;28;19931;-76
2024/01/22 03:11:52;;;;;;;;;;;9.80;99.90;;;;;;8464690;28;19923;-75
2024/01/22 03:15:54;;;;;;;;;;;9.90;99.90;;;;;;8463183;28;19958;-75
2024/01/22 03:19:56;;;;;;;;;;;10.00;99.90;;;;;;8445202;28;19930;-75
2024/01/22 03:23:58;;;;;;;;;;;10.20;99.90;;;;;;8462335;27;19976;-76
2024/01/22 03:27:59;;;;;;;;;;;10.30;99.90;;;;;;8453645;28;19934;-75
2024/01/22 03:32:01;;;;;;;;;;;10.40;99.90;;;;;;8463406;28;19923;-75
2024/01/22 03:36:03;;;;;;;;;;;10.40;99.90;;;;;;8465747;27;19928;-76
2024/01/22 03:40:05;;;;;;;;;;;10.30;99.90;;;;;;8461176;28;19928;-76
2024/01/22 03:44:07;;;;;;;;;;;10.20;99.90;;;;;;8461364;28;19967;-76
2024/01/22 03:48:08;;;;;;;;;;;10.10;99.90;;;;;;8462453;28;19931;-76
2024/01/22 03:52:10;;;;;;;;;;;10.00;99.90;;;;;;8462030;28;20167;-76
2024/01/22 03:56:12;;;;;;;;;;;10.00;99.90;;;;;;8453247;28;19931;-76
2024/01/22 04:00:13;;;;;;;;;;;10.00;99.90;;;;;;8459200;28;19923;-76
2024/01/22 04:04:15;;;;;;;;;;;10.00;99.90;;;;;;8454737;28;19994;-76
2024/01/22 04:08:17;;;;;;;;;;;10.10;99.90;;;;;;8462443;28;19924;-76
2024/01/22 04:12:22;;;;;;;;;;;10.10;99.90;;;;;;8459612;28;19930;-76
2024/01/22 04:16:24;;;;;;;;;;;10.20;99.90;;;;;;8455757;28;20334;-76
2024/01/22 04:20:25;;;;;;;;;;;10.30;99.90;;;;;;8455871;28;19931;-76
2024/01/22 04:24:27;;;;;;;;;;;10.50;99.90;;;;;;8460217;28;19924;-76
2024/01/22 04:28:29;;;;;;;;;;;10.50;99.90;;;;;;8451212;28;19923;-75
2024/01/22 04:32:30;;;;;;;;;;;10.60;99.90;;;;;;8441706;28;19931;-76
2024/01/22 04:36:32;;;;;;;;;;;10.80;99.90;;;;;;8456751;28;19924;-76
2024/01/22 04:40:34;;;;;;;;;;;11.00;99.90;;;;;;8460431;28;20337;-76
2024/01/22 04:44:36;;;;;;;;;;;11.00;99.90;;;;;;8441151;28;19923;-76
2024/01/22 04:48:38;;;;;;;;;;;10.90;99.90;;;;;;8447028;28;20031;-76
2024/01/22 04:52:39;;;;;;;;;;;10.90;99.90;;;;;;8394867;28;1788390;-76
2024/01/22 04:56:42;;;;;;;;;;;10.80;99.90;;;;;;8446568;27;19931;-76
2024/01/22 05:00:43;;;;;;;;;;;10.80;99.90;;;;;;8464256;28;19924;-76
2024/01/22 05:04:45;;;;;;;;;;;10.80;99.90;;;;;;8462919;28;19931;-76
2024/01/22 05:08:47;;;;;;;;;;;10.80;99.90;;;;;;8461021;28;19927;-76
2024/01/22 05:12:49;;;;;;;;;;;10.70;99.90;;;;;;8445676;28;20010;-76
2024/01/22 05:16:50;;;;;;;;;;;10.60;99.90;;;;;;8462494;28;19931;-76
2024/01/22 05:20:52;;;;;;;;;;;10.60;99.90;;;;;;8440059;28;20417;-76
2024/01/22 05:24:54;;;;;;;;;;;10.70;99.90;;;;;;8457293;28;19928;-76
2024/01/22 05:28:56;;;;;;;;;;;10.70;99.90;;;;;;8451605;28;19923;-76
2024/01/22 05:32:57;;;;;;;;;;;10.70;99.90;;;;;;8452975;28;19924;-76
2024/01/22 05:36:59;;;;;;;;;;;10.70;99.90;;;;;;8440780;28;20390;-76
2024/01/22 05:41:01;;;;;;;;;;;10.80;99.90;;;;;;8454588;27;19959;-76
2024/01/22 05:45:03;;;;;;;;;;;10.80;99.90;;;;;;8441126;28;19969;-76
2024/01/22 05:49:05;;;;;;;;;;;10.90;99.90;;;;;;8456447;28;20336;-76
2024/01/22 05:53:07;;;;;;;;;;;11.00;99.90;;;;;;8458242;28;19986;-76
2024/01/22 05:57:09;;;;;;;;;;;11.10;99.90;;;;;;8441059;28;19931;-76
2024/01/22 06:01:17;;;;;;;;;;;11.10;99.90;;;;;;8454987;27;19927;-76
2024/01/22 06:05:19;;;;;;;;;;;11.10;99.90;;;;;;8440403;28;19930;-76
2024/01/22 06:09:21;;;;;;;;;;;11.10;99.90;;;;;;8458471;28;20282;-76
2024/01/22 06:13:23;;;;;;;;;;;11.20;99.90;;;;;;8451749;28;20022;-76
2024/01/22 06:17:30;;;;;;;;;;;11.20;99.90;;;;;;8458596;28;20326;-76
2024/01/22 06:21:32;;;;;;;;;;;11.20;99.90;;;;;;8456195;28;19972;-75
2024/01/22 06:25:34;;;;;;;;;;;11.30;99.90;;;;;;8452212;28;19925;-76
2024/01/22 06:29:35;;;;;;;;;;;11.40;99.90;;;;;;8437566;28;19986;-76
2024/01/22 06:33:37;;;;;;;;;;;11.40;99.90;;;;;;8440553;28;19977;-76
2024/01/22 06:37:39;;;;;;;;;;;11.50;99.90;;;;;;8457098;28;19938;-75
2024/01/22 06:41:41;;;;;;;;;;;11.50;99.90;;;;;;8459351;28;19931;-75
2024/01/22 06:45:43;;;;;;;;;;;11.50;99.90;;;;;;8460980;28;19972;-75
2024/01/22 06:49:44;;;;;;;;;;;11.60;99.90;;;;;;8431729;28;19931;-76
2024/01/22 06:53:46;;;;;;;;;;;11.60;99.90;;;;;;8467809;28;19966;-76
2024/01/22 06:57:48;;;;;;;;;;;11.60;99.90;;;;;;8442253;28;20711;-76
2024/01/22 07:01:50;;;;;;;;;;;11.60;99.90;;;;;;8461194;28;19939;-75
2024/01/22 07:05:52;;;;;;;;;;;11.60;99.90;;;;;;8441512;28;20647;-76
2024/01/22 07:09:54;;;;;;;;;;;11.70;99.90;;;;;;8437857;28;19924;-76
2024/01/22 07:13:55;;;;;;;;;;;11.70;99.90;;;;;;8440204;28;19967;-75
2024/01/22 07:17:57;;;;;;;;;;;11.70;99.90;;;;;;8461302;28;19947;-76
2024/01/22 07:21:59;;;;;;;;;;;11.70;99.90;;;;;;8442058;28;19949;-76
2024/01/22 07:26:01;;;;;;;;;;;11.70;99.90;;;;;;8458174;28;20256;-75
2024/01/22 07:30:07;;;;;;;;;;;11.70;99.90;;;;;;8460730;28;19954;-75
2024/01/22 07:34:10;;;;;;;;;;;11.70;99.90;;;;;;8442459;28;19923;-76
2024/01/22 07:38:13;;;;;;;;;;;11.60;99.90;;;;;;8466717;28;20416;-75
2024/01/22 07:42:14;;;;;;;;;;;11.50;99.90;;;;;;8459928;28;20404;-76
2024/01/22 07:46:16;;;;;;;;;;;11.50;99.90;;;;;;8456843;28;19933;-76
2024/01/22 07:50:18;;;;;;;;;;;11.30;99.90;;;;;;8455355;28;20379;-76
2024/01/22 07:54:20;;;;;;;;;;;11.20;99.90;;;;;;8416248;28;19929;-76
2024/01/22 07:58:21;;;;;;;;;;;11.10;99.90;;;;;;8416622;28;19972;-77
2024/01/22 08:02:23;;;;;;;;;;;11.00;99.90;;;;;;8409535;28;19977;-78
2024/01/22 08:06:25;;;;;;;;;;;10.90;99.90;;;;;;8392104;28;20366;-78
2024/01/22 08:10:27;;;;;;;;;;;10.80;99.90;;;;;;8422308;28;19928;-79
2024/01/22 08:14:29;;;;;;;;;;;10.80;99.90;;;;;;8404110;28;19936;-79
2024/01/22 08:18:31;;;;;;;;;;;10.70;99.90;;;;;;8401141;28;20341;-80
2024/01/22 08:22:33;;;;;;;;;;;10.70;99.90;;;;;;8411321;28;19924;-80
2024/01/22 08:26:35;;;;;;;;;;;10.70;99.90;;;;;;8416710;28;19927;-80
2024/01/22 08:30:38;;;;;;;;;;;10.60;99.90;;;;;;8393284;28;19986;-80
2024/01/22 08:34:40;;;;;;;;;;;10.60;99.90;;;;;;8431147;28;20303;-79
2024/01/22 08:38:42;;;;;;;;;;;10.60;99.90;;;;;;8402901;28;19946;-79
2024/01/22 08:42:45;;;;;;;;;;;10.50;99.90;;;;;;8413358;28;20015;-80
2024/01/22 08:46:47;;;;;;;;;;;10.50;99.90;;;;;;8418805;28;19951;-80
2024/01/22 08:50:49;;;;;;;;;;;10.50;99.90;;;;;;8383985;28;20314;-80
2024/01/22 08:54:51;;;;;;;;;;;10.50;99.90;;;;;;8458270;28;20333;-80
2024/01/22 08:58:53;;;;;;;;;;;10.50;99.90;;;;;;8442353;28;19924;-79
2024/01/22 09:02:55;;;;;;;;;;;10.40;99.90;;;;;;8440396;28;19923;-78
2024/01/22 09:06:57;;;;;;;;;;;10.40;99.90;;;;;;8461151;28;19935;-79
2024/01/22 09:10:59;;;;;;;;;;;10.40;99.90;;;;;;8466109;27;19927;-78
2024/01/22 09:15:02;;;;;;;;;;;10.30;99.90;;;;;;8452010;28;19928;-79
2024/01/22 09:19:04;;;;;;;;;;;10.30;99.90;;;;;;8459791;28;20018;-80
2024/01/22 09:23:09;;;;;;;;;;;10.20;99.90;;;;;;8451943;28;20290;-80
2024/01/22 09:27:11;;;;;;;;;;;10.10;99.90;;;;;;8453711;28;19928;-79
2024/01/22 09:31:12;;;;;;;;;;;10.00;99.90;;;;;;8454201;28;20341;-78
2024/01/22 09:35:14;;;;;;;;;;;9.90;99.90;;;;;;8441996;28;19930;-78
2024/01/22 09:39:16;;;;;;;;;;;9.90;99.90;;;;;;8458870;28;19934;-78
2024/01/22 09:43:18;;;;;;;;;;;9.80;99.90;;;;;;8456720;28;20048;-79
2024/01/22 09:47:20;;;;;;;;;;;9.70;99.90;;;;;;8442400;28;19985;-78
2024/01/22 09:51:22;;;;;;;;;;;9.60;99.90;;;;;;8440483;28;19924;-78
2024/01/22 09:55:24;;;;;;;;;;;9.60;99.90;;;;;;8439456;28;20375;-79
2024/01/22 09:59:28;;;;;;;;;;;9.50;99.90;;;;;;8463000;28;19924;-78
2024/01/22 10:03:32;;;;;;;;;;;9.40;99.90;;;;;;8435499;28;19930;-78
2024/01/22 10:07:34;;;;;;;;;;;9.40;99.90;;;;;;8460080;28;19950;-78
2024/01/22 10:11:36;;;;;;;;;;;9.30;99.90;;;;;;8463469;28;19977;-78
2024/01/22 10:15:38;;;;;;;;;;;9.30;99.90;;;;;;8449945;28;20456;-78
2024/01/22 10:19:40;;;;;;;;;;;9.30;99.90;;;;;;8455132;28;19990;-78
2024/01/22 10:23:54;;;;;;;;;;;9.20;99.90;;;;;;8429807;28;20399;-77
2024/01/22 10:28:08;;;;;;;;;;;9.20;99.90;;;;;;8446359;28;20394;-77
2024/01/22 10:32:10;;;;;;;;;;;9.20;99.90;;;;;;8439813;28;19969;-78
2024/01/22 10:36:22;;;;;;;;;;;9.20;99.90;;;;;;8456008;28;19924;-78
2024/01/22 10:40:29;;;;;;;;;;;9.20;99.90;;;;;;8439449;28;20360;-77
2024/01/22 10:44:31;;;;;;;;;;;9.20;99.90;;;;;;8457191;28;19969;-77
2024/01/22 10:48:33;;;;;;;18.55;3.03;;;9.20;99.90;;;;;;8455918;28;20064;-77
2024/01/22 10:52:48;;;;;;;17.48;3.30;;;9.20;99.90;;;;;;8459217;28;20051;-77
2024/01/22 10:57:18;;;;;;;13.80;3.22;;;9.20;99.90;;;;;;8461181;28;20035;-77
2024/01/22 11:01:24;;;;;;;9.20;2.40;;;9.20;99.90;;;;;;8447746;28;20096;-77
2024/01/22 11:05:29;;;;;;;;;;;9.30;99.90;;;;;;8448875;28;20422;-76
2024/01/22 11:09:32;;;;;;;23.13;2.72;;;9.70;99.90;;;;;;8462238;28;19928;-77
2024/01/22 11:13:34;;;;;;;10.65;2.35;;;10.10;99.90;;;;;;8445164;28;20035;-76
2024/01/22 11:17:36;;;;;;;;;;;10.60;99.90;;;;;;8441175;28;19919;-77
2024/01/22 11:21:38;;;;;;;;;;;11.00;99.90;;;;;;8462511;28;19998;-77
2024/01/22 11:25:41;;;;;;;;;;;11.30;99.90;;;;;;8456073;28;19924;-77
2024/01/22 11:29:42;;;;;;;;;;;11.60;99.90;;;;;;8458888;28;19923;-76
2024/01/22 11:33:50;;;;;;;;;;;11.90;99.90;;;;;;8447594;28;19920;-76
2024/01/22 11:37:52;;;;;;;;;;;12.30;99.90;;;;;;8463615;27;19959;-76
2024/01/22 11:41:54;;;;;;;;;;;12.70;99.90;;;;;;8443147;28;20279;-76
2024/01/22 11:46:00;;;;;;;;;;;12.90;99.90;;;;;;8462448;28;20375;-76
2024/01/22 11:50:06;;;;;;;;;;;13.10;99.90;;;;;;8444696;28;19976;-76
2024/01/22 11:54:08;;;;;;;;;;;13.10;99.90;;;;;;8438577;28;20379;-76
2024/01/22 11:58:12;;;;;;;;;;;13.10;99.90;;;;;;8460078;28;20390;-76
2024/01/22 12:02:14;;;;;;;;;;;13.20;99.90;;;;;;8461446;28;19920;-75
2024/01/22 12:06:15;;;;;;;;;;;13.20;99.90;;;;;;8461059;27;19962;-76
2024/01/22 12:10:20;;;;;;;;;;;12.90;99.90;;;;;;8462119;28;19923;-76
2024/01/22 12:14:23;;;;;;;;;;;12.70;99.90;;;;;;8436365;28;19951;-75
2024/01/22 12:18:25;;;;;;;;;;;12.60;99.90;;;;;;8465311;28;19919;-75
2024/01/22 12:22:27;;;;;;;;;;;12.40;99.90;;;;;;8445928;28;20297;-75
2024/01/22 12:26:30;;;;;;;;;;;12.30;99.90;;;;;;8431857;28;19924;-75
2024/01/22 12:30:32;;;;;;;;;;;12.30;99.90;;;;;;8408849;28;19927;-75
2024/01/22 12:34:34;;;;;;;;;;;12.30;99.90;;;;;;8424178;28;19920;-75
2024/01/22 12:38:52;;;;;;;;;;;12.30;99.90;;;;;;8425473;28;19956;-75
2024/01/22 12:42:58;;;;;;;;;;;12.50;99.90;;;;;;8431063;27;20007;-75
2024/01/22 12:47:00;;;;;;;;;;;12.60;99.90;;;;;;8425708;28;19924;-75
2024/01/22 12:51:02;;;;;;;;;;;12.70;99.90;;;;;;8427050;28;20378;-75
2024/01/22 12:55:04;;;;;;;;;;;12.80;99.90;;;;;;8427946;28;19928;-75
2024/01/22 12:59:06;;;;;;;;;;;12.50;99.90;;;;;;8436052;28;19923;-75
2024/01/22 13:03:07;;;;;;;;;;;12.30;99.90;;;;;;8415815;28;19920;-75
2024/01/22 13:07:10;;;;;;;;;;;12.40;99.90;;;;;;8418757;28;20339;-75
2024/01/22 13:11:12;;;;;;;;;;;12.60;99.90;;;;;;8425183;28;19924;-76
2024/01/22 13:15:13;;;;;;;;;;;12.50;99.90;;;;;;8436785;27;19920;-75
2024/01/22 13:19:15;;;;;;;;;;;12.50;99.90;;;;;;8423723;28;19954;-75
2024/01/22 13:23:17;;;;;;;;;;;12.60;99.90;;;;;;8428844;28;19926;-75
2024/01/22 13:27:19;;;;;;;;;;;12.80;99.90;;;;;;8425608;28;20072;-73
2024/01/22 13:31:20;;;;;;;;;;;12.80;99.90;;;;;;8426626;28;19955;-73
2024/01/22 13:35:22;;;;;;;;;;;12.80;99.90;;;;;;8408776;28;19928;-73
2024/01/22 13:39:25;;;;;;;;;;;12.50;99.90;;;;;;8416256;28;20503;-72
2024/01/22 13:43:27;;;;;;;;;;;12.20;99.90;;;;;;8414188;28;19920;-73
2024/01/22 13:47:29;;;;;;;;;;;12.00;99.90;;;;;;8430266;28;19980;-73
2024/01/22 13:51:38;;;;;;;;;;;11.90;99.90;;;;;;8435936;28;19923;-73
2024/01/22 13:55:39;;;;;;;;;;;11.80;99.90;;;;;;8429591;28;19924;-72
2024/01/22 13:59:41;;;;;;;;;;;11.60;99.90;;;;;;8428713;28;20374;-73
2024/01/22 14:03:43;;;;;;;;;;;11.50;99.90;;;;;;8436704;28;19936;-73
2024/01/22 14:07:45;;;;;;;;;;;11.40;99.90;;;;;;8435261;28;19924;-72
2024/01/22 14:11:46;;;;;;;;;;;11.40;99.90;;;;;;8425787;28;20367;-73
2024/01/22 14:15:48;;;;;;;;;;;11.30;99.90;;;;;;8426624;28;20321;-73
2024/01/22 14:19:50;;;;;;;;;;;11.20;99.90;;;;;;8420286;28;20023;-73
2024/01/22 14:23:52;;;;;;;;;;;11.20;99.90;;;;;;8409491;28;19927;-73
2024/01/22 14:27:54;;;;;;;;;;;11.10;99.90;;;;;;8431541;28;19920;-73
2024/01/22 14:31:56;;;;;;;;;;;11.10;99.90;;;;;;8431433;28;20272;-73
2024/01/22 14:35:58;;;;;;;;;;;11.10;99.90;;;;;;8432391;27;19919;-73
2024/01/22 14:40:00;;;;;;;;;;;11.00;99.90;;;;;;8428757;28;19924;-73
2024/01/22 14:44:01;;;;;;;;;;;10.90;99.90;;;;;;8435618;28;20376;-72
2024/01/22 14:48:04;;;;;;;;;;;10.80;99.90;;;;;;8431269;27;19920;-72
2024/01/22 14:52:06;;;;;;;;;;;10.90;99.90;;;;;;8429978;28;19939;-72
2024/01/22 14:56:08;;;;;;;;;;;11.00;99.90;;;;;;8432433;28;20245;-73
2024/01/22 15:00:12;;;;;;;;;;;11.10;99.90;;;;;;8427368;28;20030;-72
2024/01/22 15:04:13;;;;;;;;;;;11.20;99.90;;;;;;8411390;28;19934;-73
2024/01/22 15:08:15;;;;;;;;;;;11.30;99.90;;;;;;8413689;28;19974;-73
2024/01/22 15:12:17;;;;;;;;;;;11.50;99.90;;;;;;8424440;28;20452;-73
2024/01/22 15:16:19;;;;;;;;;;;11.40;99.90;;;;;;8437678;28;20023;-73
2024/01/22 15:20:20;;;;;;;;;;;11.30;99.90;;;;;;8426672;28;19935;-73
2024/01/22 15:24:22;;;;;;;;;;;11.10;99.90;;;;;;8431273;28;19924;-73
2024/01/22 15:28:25;;;;;;;;;;;10.90;99.90;;;;;;8436913;28;19919;-72
2024/01/22 15:32:27;;;;;;;;;;;10.70;99.90;;;;;;8429745;27;19928;-73
2024/01/22 15:36:29;;;;;;;;;;;10.50;99.90;;;;;;8421790;28;19943;-73
2024/01/22 15:40:31;;;;;;;;;;;10.20;99.90;;;;;;8410882;28;19928;-73
2024/01/22 15:44:32;;;;;;;18.80;3.65;;;10.00;99.90;;;;;;8426670;27;19920;-74
2024/01/22 15:48:34;;;;;;;11.18;2.53;;;10.00;99.90;;;;;;8433791;28;20756;-74
2024/01/22 15:52:36;;;;;;;13.18;2.20;;;9.90;99.90;;;;;;8414241;28;20040;-75
2024/01/22 15:56:38;;;;;;;18.20;3.15;;;9.90;99.90;;;;;;8430282;28;20047;-75
2024/01/22 16:00:40;;;;;;;15.38;3.05;;;9.80;99.90;;;;;;8427816;28;20051;-75
2024/01/22 16:04:42;;;;;;;16.98;3.45;;;9.70;99.90;;;;;;8429514;28;20048;-75
2024/01/22 16:08:44;;;;;;;16.83;3.05;;;9.60;99.90;;;;;;8437440;27;20497;-75
2024/01/22 16:12:47;;;;;;;14.85;2.95;;;9.50;99.90;;;;;;8432830;28;20052;-75
2024/01/22 16:16:49;;;;;;;14.88;3.03;;;9.40;99.90;;;;;;8433253;28;20074;-74
2024/01/22 16:20:50;;;;;;;11.07;2.63;;;9.30;99.90;;;;;;8430467;28;20062;-75
2024/01/22 16:24:53;;;;;;;15.30;2.40;;;9.30;99.90;;;;;;8414705;28;20134;-75
2024/01/22 16:28:55;;;;;;;14.38;2.90;;;9.30;99.90;;;;;;8433351;27;20044;-75
2024/01/22 16:32:57;;;;;;;11.15;2.78;;;9.20;99.90;;;;;;8417289;28;20484;-74
2024/01/22 16:37:03;;;;;;;9.68;2.83;;;9.20;99.90;;;;;;8410468;27;20165;-75
2024/01/22 16:41:05;;;;;;;15.05;3.08;;;9.10;99.90;;;;;;8411671;28;20074;-74
2024/01/22 16:45:07;;;;;;;13.65;3.33;;;9.00;99.90;;;;;;8424178;28;20483;-74
2024/01/22 16:49:10;;;;;;;15.48;3.08;;;8.90;99.90;;;;;;8419473;28;20761;-74
2024/01/22 16:53:12;;;;;;;14.82;3.28;;;8.90;99.90;;;;;;8423187;28;20147;-74
2024/01/22 16:57:14;;;;;;;15.45;3.95;;;8.80;99.90;;;;;;8431312;27;20040;-74
2024/01/22 17:01:16;;;;;;;14.10;2.92;;;8.70;99.90;;;;;;8425989;28;20142;-75
2024/01/22 17:05:18;;;;;;;14.68;3.10;;;8.60;99.90;;;;;;8410180;28;20048;-74
2024/01/22 17:09:20;;;;;;;11.65;2.30;;;8.60;99.90;;;;;;8415887;28;20055;-74
2024/01/22 17:13:22;;;;;;;17.63;3.30;;;8.60;99.90;;;;;;8425981;28;20433;-74
2024/01/22 17:17:24;;;;;;;14.68;2.70;;;8.60;99.90;;;;;;8416573;28;20105;-74
2024/01/22 17:21:26;;;;;;;10.68;2.65;;;8.60;99.90;;;;;;8430206;28;20418;-74
2024/01/22 17:25:28;;;;;;;16.60;3.03;;;8.60;99.90;;;;;;8412015;28;20052;-74
2024/01/22 17:29:30;;;;;;;15.07;2.58;;;8.60;99.90;;;;;;8420426;28;20189;-74
2024/01/22 17:33:32;;;;;;;15.57;2.60;;;8.70;99.90;;;;;;8423303;28;20051;-74
2024/01/22 17:37:35;;;;;;;15.90;2.80;;;8.70;99.90;;;;;;8424778;28;20055;-74
2024/01/22 17:41:37;;;;;;;14.27;3.03;;;8.70;99.90;;;;;;8428191;28;20054;-74
2024/01/22 17:45:39;;;;;;;21.65;3.10;;;8.70;99.90;;;;;;8427619;28;20044;-74
2024/01/22 17:49:41;;;;;;;13.95;3.05;;;8.60;99.90;;;;;;8422035;28;20048;-74
2024/01/22 17:53:42;;;;;;;16.17;3.17;;;8.50;99.90;;;;;;8403869;28;20109;-74
2024/01/22 17:57:49;;;;;;;13.23;2.78;;;8.40;99.90;;;;;;8409343;28;20051;-74
2024/01/22 18:01:50;;;;;;;10.95;3.00;;;8.40;99.90;;;;;;8402479;28;20052;-75
2024/01/22 18:05:52;;;;;;;14.38;2.42;;;8.30;99.90;;;;;;8430104;28;20105;-74
2024/01/22 18:09:54;;;;;;;10.88;2.30;;;8.20;99.90;;;;;;8426547;28;20036;-74
2024/01/22 18:13:56;;;;;;;13.65;2.92;;;8.20;99.90;;;;;;8430986;28;20040;-74
2024/01/22 18:17:59;;;;;;;18.67;3.85;;;8.10;99.90;;;;;;8432436;28;20065;-74
2024/01/22 18:22:02;;;;;;;13.52;3.25;;;8.00;99.90;;;;;;8420300;28;20096;-74
2024/01/22 18:26:04;;;;;;;15.77;3.00;;;8.00;99.90;;;;;;8424537;28;20055;-74
2024/01/22 18:30:07;;;;;;;14.60;3.05;;;7.90;99.90;;;;;;8410339;28;20125;-74
2024/01/22 18:34:09;;;;;;;13.30;3.10;;;7.90;99.90;;;;;;8420862;28;20044;-74
2024/01/22 18:38:11;;;;;;;14.25;3.63;;;7.90;99.90;;;;;;8429304;28;20059;-74
2024/01/22 18:42:13;;;;;;;19.33;4.30;;;7.90;99.90;;;;;;8435655;28;20047;-74
2024/01/22 18:46:15;;;;;;;25.45;3.95;;;7.90;99.90;;;;;;8438913;28;20073;-75
2024/01/22 18:50:23;;;;;;;19.65;3.05;;;7.90;99.90;;;;;;8413346;28;20043;-74
2024/01/22 18:54:26;;;;;;;18.13;3.47;;;7.80;99.90;;;;;;8408869;28;20083;-74
2024/01/22 18:58:28;;;;;;;24.65;3.95;;;7.80;99.90;;;;;;8431065;28;20490;-74
2024/01/22 19:02:30;;;;;;;11.38;3.15;;;7.80;99.90;;;;;;8422742;28;20080;-74
2024/01/22 19:06:32;;;;;;;15.88;2.88;;;7.80;99.90;;;;;;8427488;28;20059;-74
2024/01/22 19:10:33;;;;;;;21.35;3.20;;;7.70;99.90;;;;;;8427185;28;20088;-74
2024/01/22 19:14:35;;;;;;;20.05;3.05;;;7.70;99.90;;;;;;8426950;28;20047;-74
2024/01/22 19:18:37;;;;;;;16.90;3.28;;;7.70;99.90;;;;;;8440041;28;20051;-74
2024/01/22 19:22:39;;;;;;;17.30;2.38;;;7.70;99.90;;;;;;8432130;28;20062;-74
2024/01/22 19:26:41;;;;;;;18.88;3.60;;;7.70;99.90;;;;;;8432837;28;20047;-74
2024/01/22 19:30:43;;;;;;;20.25;3.35;;;7.70;99.90;;;;;;8431817;28;20504;-74
2024/01/22 19:35:03;;;;;;;21.50;3.40;;;7.70;99.90;;;;;;8432458;28;20048;-74
2024/01/22 19:39:05;;;;;;;18.05;3.55;;;7.70;99.90;;;;;;8420839;28;20097;-74
2024/01/22 19:43:07;;;;;;;15.25;3.67;;;7.70;99.90;;;;;;8427390;27;20052;-74
2024/01/22 19:47:17;;;;;;;16.08;2.85;;;7.70;99.90;;;;;;8417383;28;20040;-74
2024/01/22 19:51:19;;;;;;;17.70;2.83;;;7.70;99.90;;;;;;8428578;28;20047;-74
2024/01/22 19:55:20;;;;;;;25.13;3.67;;;7.70;99.90;;;;;;8417454;28;20044;-74
2024/01/22 19:59:22;;;;;;;13.52;3.35;;;7.70;99.90;;;;;;8423790;28;20085;-74
2024/01/22 20:03:24;;;;;;;19.33;3.60;;;7.70;99.90;;;;;;8439980;27;20060;-74
2024/01/22 20:07:26;;;;;;;14.90;2.55;;;7.70;99.90;;;;;;8422540;28;20131;-74
2024/01/22 20:11:28;;;;;;;17.30;2.75;;;7.60;99.90;;;;;;8432941;28;20109;-74
2024/01/22 20:15:30;;;;;;;18.77;3.38;;;7.60;99.90;;;;;;8437652;27;20079;-74
2024/01/22 20:19:32;;;;;;;15.35;2.88;;;7.60;99.90;;;;;;8431722;28;20051;-74
2024/01/22 20:23:34;;;;;;;12.43;2.92;;;7.60;99.90;;;;;;8409794;28;20047;-74
2024/01/22 20:27:36;;;;;;;11.68;2.45;;;7.70;99.90;;;;;;8429890;27;20048;-74
2024/01/22 20:31:38;;;;;;;14.50;2.90;;;7.70;99.90;;;;;;8427785;28;20399;-74
2024/01/22 20:35:40;;;;;;;11.75;2.47;;;7.70;99.90;;;;;;8430928;28;20046;-74
2024/01/22 20:39:45;;;;;;;14.77;2.33;;;7.70;99.90;;;;;;8430334;27;20048;-74
2024/01/22 20:43:47;;;;;;;9.68;1.98;;;7.80;99.90;;;;;;8421575;28;20525;-75
2024/01/22 20:47:52;;;;;;;6.00;1.67;;;7.80;99.90;;;;;;8419234;28;20047;-75
2024/01/22 20:51:54;;;;;;;8.63;1.33;;;7.50;99.90;;;;;;8413249;28;20556;-75
2024/01/22 20:55:56;;;;;;;6.90;0.98;;;7.10;99.90;;;;;;8433338;28;20071;-75
2024/01/22 20:59:58;;;;;;;2.92;0.60;;;6.90;99.90;;;;;;8419805;28;20507;-75
2024/01/22 21:04:00;;;;;;;8.65;1.00;;;6.60;99.90;;;;;;8412909;27;20120;-75
2024/01/22 21:08:03;;;;;;;4.90;0.80;;;6.50;99.90;;;;;;8425517;28;20411;-75
2024/01/22 21:12:05;;;;;;;4.97;0.90;;;6.40;99.90;;;;;;8430016;28;20040;-75
2024/01/22 21:16:08;;;;;;;3.40;0.73;;;6.40;99.90;;;;;;8411469;28;20036;-75
2024/01/22 21:20:11;;;;;;;7.18;1.50;;;6.40;99.90;;;;;;8424549;28;20040;-75
2024/01/22 21:24:13;;;;;;;8.88;1.88;;;6.40;99.90;;;;;;8421555;28;20055;-75
2024/01/22 21:28:16;;;;;;;14.73;2.88;;;6.40;99.90;;;;;;8413923;28;20082;-75
2024/01/22 21:32:17;;;;;;;11.75;2.30;;;6.40;99.90;;;;;;8426318;28;20048;-75
2024/01/22 21:36:19;;;;;;;13.48;2.33;;;6.60;99.90;;;;;;8427107;28;20051;-75
2024/01/22 21:40:21;;;;;;;13.52;2.80;;;6.60;99.90;;;;;;8412639;28;20043;-75
2024/01/22 21:44:23;;;;;;;15.40;2.70;;;6.70;99.90;;;;;;8429306;28;20040;-75
2024/01/22 21:48:25;;;;;;;10.70;2.60;;;6.70;99.90;;;;;;8431262;28;20048;-75
2024/01/22 21:52:27;;;;;;;14.43;2.50;;;6.70;99.90;;;;;;8428477;28;20051;-75
2024/01/22 21:56:29;;;;;;;16.65;3.40;;;6.70;99.90;;;;;;8426311;28;20048;-75
2024/01/22 22:00:31;;;;;;;11.70;2.72;;;6.70;99.90;;;;;;8432758;28;20063;-74
2024/01/22 22:04:33;;;;;;;13.80;2.40;;;6.70;99.90;;;;;;8454396;28;20483;-74
2024/01/22 22:08:35;;;;;;;16.75;3.00;;;6.70;99.90;;;;;;8440142;28;20510;-75
2024/01/22 22:12:38;;;;;;;19.17;2.83;;;6.80;99.90;;;;;;8457420;28;20039;-75
2024/01/22 22:16:40;;;;;;;6.97;2.10;;;6.80;99.90;;;;;;8439672;28;20043;-74
2024/01/22 22:20:42;;;;;;;15.30;3.28;;;6.80;99.90;;;;;;8455433;28;20044;-74
2024/01/22 22:24:44;;;;;;;16.77;3.00;;;6.80;99.90;;;;;;8451477;28;20080;-74
2024/01/22 22:28:46;;;;;;;11.27;2.72;;;6.90;99.90;;;;;;8435483;28;20052;-74
2024/01/22 22:32:48;;;;;;;8.70;1.85;;;7.00;99.90;;;;;;8456409;28;20079;-75
2024/01/22 22:37:24;;;;;;;20.17;3.00;;;7.00;99.90;;;;;;8454226;28;20039;-74
2024/01/22 22:41:26;;;;;;;;;;;7.10;99.90;;;;;;8457460;28;20490;-74
2024/01/22 22:45:28;;;;;;;;;;;7.10;99.90;;;;;;8438831;28;19928;-75
2024/01/22 22:49:30;;;;;;;;;;;7.10;99.90;;;;;;8443730;28;20025;-75
2024/01/22 22:53:31;;;;;;;;;;;7.20;99.90;;;;;;8476972;27;19923;-74
2024/01/22 22:57:34;;;;;;;;;;;7.20;99.90;;;;;;8445598;28;19919;-74
2024/01/22 23:01:36;;;;;;;;;;;7.20;99.90;;;;;;8447519;28;19920;-74